sensor_id;sensor_type;location;lat;lon;timestamp;P1;durP1;ratioP1;P2;durP2;ratioP2
73168;SDS011;61379;59.732;30.468;2023-08-07T00:02:13;18.38;;;16.42;;
73168;SDS011;61379;59.732;30.468;2023-08-07T00:04:40;18.45;;;15.93;;
73168;SDS011;61379;59.732;30.468;2023-08-07T00:07:07;18.83;;;16.45;;
73168;SDS011;61379;59.732;30.468;2023-08-07T00:09:34;17.90;;;16.10;;
73168;SDS011;61379;59.732;30.468;2023-08-07T00:12:01;18.33;;;16.15;;
73168;SDS011;61379;59.732;30.468;2023-08-07T00:14:28;19.10;;;17.10;;
73168;SDS011;61379;59.732;30.468;2023-08-07T00:16:55;17.80;;;16.00;;
73168;SDS011;61379;59.732;30.468;2023-08-07T00:19:23;20.73;;;16.52;;
73168;SDS011;61379;59.732;30.468;2023-08-07T00:21:50;21.92;;;16.65;;
73168;SDS011;61379;59.732;30.468;2023-08-07T00:24:17;20.27;;;16.67;;
73168;SDS011;61379;59.732;30.468;2023-08-07T00:26:44;20.75;;;18.73;;
73168;SDS011;61379;59.732;30.468;2023-08-07T00:29:10;19.10;;;17.02;;
73168;SDS011;61379;59.732;30.468;2023-08-07T00:31:37;21.75;;;17.35;;
73168;SDS011;61379;59.732;30.468;2023-08-07T00:34:04;17.77;;;15.88;;
73168;SDS011;61379;59.732;30.468;2023-08-07T00:36:32;20.42;;;17.15;;
73168;SDS011;61379;59.732;30.468;2023-08-07T00:39:00;19.42;;;16.52;;
73168;SDS011;61379;59.732;30.468;2023-08-07T00:41:28;18.52;;;16.00;;
73168;SDS011;61379;59.732;30.468;2023-08-07T00:43:55;19.40;;;17.40;;
73168;SDS011;61379;59.732;30.468;2023-08-07T00:46:22;19.60;;;17.50;;
73168;SDS011;61379;59.732;30.468;2023-08-07T00:48:49;20.85;;;16.85;;
73168;SDS011;61379;59.732;30.468;2023-08-07T00:51:16;20.65;;;16.08;;
73168;SDS011;61379;59.732;30.468;2023-08-07T00:53:44;19.30;;;16.08;;
73168;SDS011;61379;59.732;30.468;2023-08-07T00:56:11;21.40;;;16.15;;
73168;SDS011;61379;59.732;30.468;2023-08-07T00:58:38;21.23;;;18.75;;
73168;SDS011;61379;59.732;30.468;2023-08-07T01:01:06;18.60;;;15.85;;
73168;SDS011;61379;59.732;30.468;2023-08-07T01:03:33;20.38;;;16.92;;
73168;SDS011;61379;59.732;30.468;2023-08-07T01:06:01;19.10;;;15.43;;
73168;SDS011;61379;59.732;30.468;2023-08-07T01:08:28;19.75;;;15.52;;
73168;SDS011;61379;59.732;30.468;2023-08-07T01:11:01;22.30;;;16.30;;
73168;SDS011;61379;59.732;30.468;2023-08-07T01:13:32;22.05;;;17.38;;
73168;SDS011;61379;59.732;30.468;2023-08-07T01:16:02;18.63;;;16.38;;
73168;SDS011;61379;59.732;30.468;2023-08-07T01:18:32;18.00;;;16.15;;
73168;SDS011;61379;59.732;30.468;2023-08-07T01:21:01;21.20;;;17.05;;
73168;SDS011;61379;59.732;30.468;2023-08-07T01:23:30;20.33;;;16.92;;
73168;SDS011;61379;59.732;30.468;2023-08-07T01:25:57;20.10;;;17.38;;
73168;SDS011;61379;59.732;30.468;2023-08-07T01:28:25;21.80;;;17.58;;
73168;SDS011;61379;59.732;30.468;2023-08-07T01:30:54;19.17;;;16.52;;
73168;SDS011;61379;59.732;30.468;2023-08-07T01:33:22;19.98;;;16.95;;
73168;SDS011;61379;59.732;30.468;2023-08-07T01:35:52;19.02;;;16.83;;
73168;SDS011;61379;59.732;30.468;2023-08-07T01:38:19;22.23;;;18.83;;
73168;SDS011;61379;59.732;30.468;2023-08-07T01:40:48;19.58;;;17.27;;
73168;SDS011;61379;59.732;30.468;2023-08-07T01:43:16;19.13;;;17.10;;
73168;SDS011;61379;59.732;30.468;2023-08-07T01:45:44;21.88;;;17.05;;
73168;SDS011;61379;59.732;30.468;2023-08-07T01:48:11;19.73;;;17.63;;
73168;SDS011;61379;59.732;30.468;2023-08-07T01:50:38;22.50;;;17.55;;
73168;SDS011;61379;59.732;30.468;2023-08-07T01:53:05;20.20;;;18.02;;
73168;SDS011;61379;59.732;30.468;2023-08-07T01:55:32;19.80;;;17.65;;
73168;SDS011;61379;59.732;30.468;2023-08-07T01:58:00;19.65;;;17.10;;
73168;SDS011;61379;59.732;30.468;2023-08-07T02:00:27;22.10;;;18.73;;
73168;SDS011;61379;59.732;30.468;2023-08-07T02:02:54;20.70;;;17.90;;
73168;SDS011;61379;59.732;30.468;2023-08-07T02:05:21;23.00;;;17.95;;
73168;SDS011;61379;59.732;30.468;2023-08-07T02:07:48;21.95;;;18.67;;
73168;SDS011;61379;59.732;30.468;2023-08-07T02:10:15;19.08;;;17.15;;
73168;SDS011;61379;59.732;30.468;2023-08-07T02:12:42;22.48;;;20.27;;
73168;SDS011;61379;59.732;30.468;2023-08-07T02:15:10;19.77;;;17.67;;
73168;SDS011;61379;59.732;30.468;2023-08-07T02:17:37;21.92;;;17.35;;
73168;SDS011;61379;59.732;30.468;2023-08-07T02:20:07;20.23;;;18.05;;
73168;SDS011;61379;59.732;30.468;2023-08-07T02:22:34;21.05;;;17.52;;
73168;SDS011;61379;59.732;30.468;2023-08-07T02:25:00;19.55;;;17.55;;
73168;SDS011;61379;59.732;30.468;2023-08-07T02:27:30;21.75;;;18.20;;
73168;SDS011;61379;59.732;30.468;2023-08-07T02:29:57;19.60;;;17.52;;
73168;SDS011;61379;59.732;30.468;2023-08-07T02:32:25;21.70;;;19.60;;
73168;SDS011;61379;59.732;30.468;2023-08-07T02:34:52;18.52;;;16.52;;
73168;SDS011;61379;59.732;30.468;2023-08-07T02:37:19;19.55;;;17.17;;
73168;SDS011;61379;59.732;30.468;2023-08-07T02:39:46;21.77;;;17.38;;
73168;SDS011;61379;59.732;30.468;2023-08-07T02:42:13;20.13;;;18.02;;
73168;SDS011;61379;59.732;30.468;2023-08-07T02:44:40;19.73;;;17.63;;
73168;SDS011;61379;59.732;30.468;2023-08-07T02:47:07;20.00;;;17.90;;
73168;SDS011;61379;59.732;30.468;2023-08-07T02:49:35;20.95;;;17.50;;
73168;SDS011;61379;59.732;30.468;2023-08-07T02:52:02;19.40;;;17.60;;
73168;SDS011;61379;59.732;30.468;2023-08-07T02:54:29;20.20;;;18.15;;
73168;SDS011;61379;59.732;30.468;2023-08-07T02:56:55;19.30;;;16.77;;
73168;SDS011;61379;59.732;30.468;2023-08-07T02:59:22;19.08;;;17.15;;
73168;SDS011;61379;59.732;30.468;2023-08-07T03:01:49;19.30;;;16.42;;
73168;SDS011;61379;59.732;30.468;2023-08-07T03:04:16;19.35;;;17.45;;
73168;SDS011;61379;59.732;30.468;2023-08-07T03:06:44;19.08;;;16.75;;
73168;SDS011;61379;59.732;30.468;2023-08-07T03:09:11;18.83;;;16.92;;
73168;SDS011;61379;59.732;30.468;2023-08-07T03:11:38;20.95;;;17.08;;
73168;SDS011;61379;59.732;30.468;2023-08-07T03:14:05;18.45;;;16.52;;
73168;SDS011;61379;59.732;30.468;2023-08-07T03:16:31;20.77;;;15.65;;
73168;SDS011;61379;59.732;30.468;2023-08-07T03:18:58;21.25;;;16.30;;
73168;SDS011;61379;59.732;30.468;2023-08-07T03:21:25;17.83;;;16.02;;
73168;SDS011;61379;59.732;30.468;2023-08-07T03:23:53;18.52;;;15.07;;
73168;SDS011;61379;59.732;30.468;2023-08-07T03:26:20;17.55;;;15.75;;
73168;SDS011;61379;59.732;30.468;2023-08-07T03:28:47;21.23;;;16.08;;
73168;SDS011;61379;59.732;30.468;2023-08-07T03:31:14;20.05;;;15.88;;
73168;SDS011;61379;59.732;30.468;2023-08-07T03:33:41;19.95;;;15.43;;
73168;SDS011;61379;59.732;30.468;2023-08-07T03:36:08;18.42;;;16.58;;
73168;SDS011;61379;59.732;30.468;2023-08-07T03:38:35;17.77;;;16.08;;
73168;SDS011;61379;59.732;30.468;2023-08-07T03:41:04;17.05;;;15.35;;
73168;SDS011;61379;59.732;30.468;2023-08-07T03:43:31;19.20;;;17.20;;
73168;SDS011;61379;59.732;30.468;2023-08-07T03:45:57;17.25;;;14.18;;
73168;SDS011;61379;59.732;30.468;2023-08-07T03:48:24;18.17;;;15.63;;
73168;SDS011;61379;59.732;30.468;2023-08-07T03:50:51;17.40;;;15.60;;
73168;SDS011;61379;59.732;30.468;2023-08-07T03:53:18;18.00;;;16.10;;
73168;SDS011;61379;59.732;30.468;2023-08-07T03:55:48;18.27;;;16.58;;
73168;SDS011;61379;59.732;30.468;2023-08-07T03:58:17;19.60;;;16.35;;
73168;SDS011;61379;59.732;30.468;2023-08-07T04:00:43;18.05;;;16.42;;
73168;SDS011;61379;59.732;30.468;2023-08-07T04:03:10;18.15;;;16.15;;
73168;SDS011;61379;59.732;30.468;2023-08-07T04:05:37;18.33;;;16.52;;
73168;SDS011;61379;59.732;30.468;2023-08-07T04:08:04;19.92;;;18.05;;
73168;SDS011;61379;59.732;30.468;2023-08-07T04:10:30;17.85;;;15.95;;
73168;SDS011;61379;59.732;30.468;2023-08-07T04:12:57;19.58;;;16.73;;
73168;SDS011;61379;59.732;30.468;2023-08-07T04:15:26;16.92;;;15.23;;
73168;SDS011;61379;59.732;30.468;2023-08-07T04:17:53;17.58;;;15.82;;
73168;SDS011;61379;59.732;30.468;2023-08-07T04:20:19;19.38;;;17.67;;
73168;SDS011;61379;59.732;30.468;2023-08-07T04:22:46;18.27;;;15.60;;
73168;SDS011;61379;59.732;30.468;2023-08-07T04:25:13;18.98;;;15.52;;
73168;SDS011;61379;59.732;30.468;2023-08-07T04:27:40;19.00;;;14.90;;
73168;SDS011;61379;59.732;30.468;2023-08-07T04:30:07;17.60;;;15.43;;
73168;SDS011;61379;59.732;30.468;2023-08-07T04:32:35;17.67;;;15.65;;
73168;SDS011;61379;59.732;30.468;2023-08-07T04:35:02;18.20;;;16.40;;
73168;SDS011;61379;59.732;30.468;2023-08-07T04:37:29;16.40;;;14.80;;
73168;SDS011;61379;59.732;30.468;2023-08-07T04:39:56;16.92;;;14.38;;
73168;SDS011;61379;59.732;30.468;2023-08-07T04:42:23;20.23;;;16.95;;
73168;SDS011;61379;59.732;30.468;2023-08-07T04:44:50;16.92;;;15.35;;
73168;SDS011;61379;59.732;30.468;2023-08-07T04:47:16;15.40;;;13.90;;
73168;SDS011;61379;59.732;30.468;2023-08-07T04:49:45;16.45;;;14.73;;
73168;SDS011;61379;59.732;30.468;2023-08-07T04:52:12;15.43;;;13.85;;
73168;SDS011;61379;59.732;30.468;2023-08-07T04:54:38;17.10;;;15.43;;
73168;SDS011;61379;59.732;30.468;2023-08-07T04:57:05;17.08;;;15.30;;
73168;SDS011;61379;59.732;30.468;2023-08-07T04:59:32;15.30;;;13.77;;
73168;SDS011;61379;59.732;30.468;2023-08-07T05:02:01;17.65;;;15.90;;
73168;SDS011;61379;59.732;30.468;2023-08-07T05:04:27;15.25;;;13.70;;
73168;SDS011;61379;59.732;30.468;2023-08-07T05:06:56;15.27;;;13.82;;
73168;SDS011;61379;59.732;30.468;2023-08-07T05:09:22;16.92;;;15.32;;
73168;SDS011;61379;59.732;30.468;2023-08-07T05:11:49;15.30;;;13.90;;
73168;SDS011;61379;59.732;30.468;2023-08-07T05:14:16;15.75;;;14.38;;
73168;SDS011;61379;59.732;30.468;2023-08-07T05:16:43;15.00;;;13.55;;
73168;SDS011;61379;59.732;30.468;2023-08-07T05:19:10;16.83;;;13.65;;
73168;SDS011;61379;59.732;30.468;2023-08-07T05:21:36;17.00;;;13.73;;
73168;SDS011;61379;59.732;30.468;2023-08-07T05:24:05;14.27;;;12.85;;
73168;SDS011;61379;59.732;30.468;2023-08-07T05:26:32;14.68;;;13.27;;
73168;SDS011;61379;59.732;30.468;2023-08-07T05:29:00;15.60;;;14.00;;
73168;SDS011;61379;59.732;30.468;2023-08-07T05:31:27;14.90;;;13.43;;
73168;SDS011;61379;59.732;30.468;2023-08-07T05:33:53;15.00;;;13.35;;
73168;SDS011;61379;59.732;30.468;2023-08-07T05:36:20;14.65;;;13.30;;
73168;SDS011;61379;59.732;30.468;2023-08-07T05:38:47;14.55;;;13.07;;
73168;SDS011;61379;59.732;30.468;2023-08-07T05:41:15;14.65;;;13.35;;
73168;SDS011;61379;59.732;30.468;2023-08-07T05:43:42;16.30;;;13.68;;
73168;SDS011;61379;59.732;30.468;2023-08-07T05:46:09;16.58;;;15.05;;
73168;SDS011;61379;59.732;30.468;2023-08-07T05:48:35;15.85;;;13.93;;
73168;SDS011;61379;59.732;30.468;2023-08-07T05:51:02;14.25;;;12.82;;
73168;SDS011;61379;59.732;30.468;2023-08-07T05:53:29;14.93;;;13.13;;
73168;SDS011;61379;59.732;30.468;2023-08-07T05:55:56;14.32;;;13.02;;
73168;SDS011;61379;59.732;30.468;2023-08-07T05:58:24;15.07;;;13.57;;
73168;SDS011;61379;59.732;30.468;2023-08-07T06:00:51;14.63;;;13.32;;
73168;SDS011;61379;59.732;30.468;2023-08-07T06:03:18;14.80;;;12.93;;
73168;SDS011;61379;59.732;30.468;2023-08-07T06:05:45;13.65;;;12.38;;
73168;SDS011;61379;59.732;30.468;2023-08-07T06:08:11;16.58;;;12.57;;
73168;SDS011;61379;59.732;30.468;2023-08-07T06:10:38;14.55;;;13.15;;
73168;SDS011;61379;59.732;30.468;2023-08-07T06:13:05;12.82;;;11.57;;
73168;SDS011;61379;59.732;30.468;2023-08-07T06:15:35;15.35;;;13.90;;
73168;SDS011;61379;59.732;30.468;2023-08-07T06:18:01;14.00;;;12.60;;
73168;SDS011;61379;59.732;30.468;2023-08-07T06:20:28;14.45;;;12.57;;
73168;SDS011;61379;59.732;30.468;2023-08-07T06:22:55;15.48;;;14.07;;
73168;SDS011;61379;59.732;30.468;2023-08-07T06:25:22;15.57;;;13.25;;
73168;SDS011;61379;59.732;30.468;2023-08-07T06:27:50;13.43;;;11.57;;
73168;SDS011;61379;59.732;30.468;2023-08-07T06:30:17;14.55;;;13.02;;
73168;SDS011;61379;59.732;30.468;2023-08-07T06:32:45;13.38;;;12.07;;
73168;SDS011;61379;59.732;30.468;2023-08-07T06:35:12;13.82;;;12.50;;
73168;SDS011;61379;59.732;30.468;2023-08-07T06:37:38;13.48;;;12.10;;
73168;SDS011;61379;59.732;30.468;2023-08-07T06:40:06;12.40;;;11.20;;
73168;SDS011;61379;59.732;30.468;2023-08-07T06:42:33;12.88;;;11.68;;
73168;SDS011;61379;59.732;30.468;2023-08-07T06:44:59;14.98;;;13.52;;
73168;SDS011;61379;59.732;30.468;2023-08-07T06:47:26;14.68;;;13.50;;
73168;SDS011;61379;59.732;30.468;2023-08-07T06:49:54;12.88;;;11.52;;
73168;SDS011;61379;59.732;30.468;2023-08-07T06:52:21;15.27;;;13.45;;
73168;SDS011;61379;59.732;30.468;2023-08-07T06:54:48;13.82;;;12.43;;
73168;SDS011;61379;59.732;30.468;2023-08-07T06:57:15;12.43;;;11.32;;
73168;SDS011;61379;59.732;30.468;2023-08-07T06:59:41;14.27;;;12.70;;
73168;SDS011;61379;59.732;30.468;2023-08-07T07:02:08;13.60;;;12.27;;
73168;SDS011;61379;59.732;30.468;2023-08-07T07:04:35;13.18;;;11.88;;
73168;SDS011;61379;59.732;30.468;2023-08-07T07:07:04;14.95;;;12.85;;
73168;SDS011;61379;59.732;30.468;2023-08-07T07:09:31;14.52;;;11.75;;
73168;SDS011;61379;59.732;30.468;2023-08-07T07:11:58;13.38;;;12.25;;
73168;SDS011;61379;59.732;30.468;2023-08-07T07:14:24;15.02;;;12.27;;
73168;SDS011;61379;59.732;30.468;2023-08-07T07:16:51;13.10;;;12.00;;
73168;SDS011;61379;59.732;30.468;2023-08-07T07:19:18;13.25;;;11.95;;
73168;SDS011;61379;59.732;30.468;2023-08-07T07:21:45;14.00;;;12.43;;
73168;SDS011;61379;59.732;30.468;2023-08-07T07:24:13;13.50;;;12.30;;
73168;SDS011;61379;59.732;30.468;2023-08-07T07:26:40;20.73;;;15.02;;
73168;SDS011;61379;59.732;30.468;2023-08-07T07:29:06;12.45;;;11.40;;
73168;SDS011;61379;59.732;30.468;2023-08-07T07:31:33;12.13;;;10.93;;
73168;SDS011;61379;59.732;30.468;2023-08-07T07:34:00;13.32;;;11.95;;
73168;SDS011;61379;59.732;30.468;2023-08-07T07:36:27;13.75;;;12.75;;
73168;SDS011;61379;59.732;30.468;2023-08-07T07:38:53;13.85;;;12.50;;
73168;SDS011;61379;59.732;30.468;2023-08-07T07:41:22;13.02;;;11.77;;
73168;SDS011;61379;59.732;30.468;2023-08-07T07:43:49;13.70;;;12.40;;
73168;SDS011;61379;59.732;30.468;2023-08-07T07:46:16;12.40;;;11.10;;
73168;SDS011;61379;59.732;30.468;2023-08-07T07:48:43;11.98;;;10.88;;
73168;SDS011;61379;59.732;30.468;2023-08-07T07:51:09;12.57;;;11.38;;
73168;SDS011;61379;59.732;30.468;2023-08-07T07:53:36;13.32;;;12.02;;
73168;SDS011;61379;59.732;30.468;2023-08-07T07:56:03;12.60;;;11.57;;
73168;SDS011;61379;59.732;30.468;2023-08-07T07:58:32;14.25;;;12.95;;
73168;SDS011;61379;59.732;30.468;2023-08-07T08:00:59;12.68;;;11.38;;
73168;SDS011;61379;59.732;30.468;2023-08-07T08:03:26;14.45;;;13.13;;
73168;SDS011;61379;59.732;30.468;2023-08-07T08:05:53;12.48;;;11.50;;
73168;SDS011;61379;59.732;30.468;2023-08-07T08:08:19;12.13;;;11.07;;
73168;SDS011;61379;59.732;30.468;2023-08-07T08:10:46;13.48;;;12.32;;
73168;SDS011;61379;59.732;30.468;2023-08-07T08:13:13;12.63;;;11.30;;
73168;SDS011;61379;59.732;30.468;2023-08-07T08:15:41;13.02;;;11.93;;
73168;SDS011;61379;59.732;30.468;2023-08-07T08:18:08;12.93;;;11.88;;
73168;SDS011;61379;59.732;30.468;2023-08-07T08:20:35;14.68;;;13.48;;
73168;SDS011;61379;59.732;30.468;2023-08-07T08:23:02;13.15;;;12.05;;
73168;SDS011;61379;59.732;30.468;2023-08-07T08:25:29;13.18;;;11.88;;
73168;SDS011;61379;59.732;30.468;2023-08-07T08:27:55;13.32;;;11.68;;
73168;SDS011;61379;59.732;30.468;2023-08-07T08:30:22;13.23;;;12.07;;
73168;SDS011;61379;59.732;30.468;2023-08-07T08:32:51;12.27;;;11.13;;
73168;SDS011;61379;59.732;30.468;2023-08-07T08:35:18;13.93;;;11.75;;
73168;SDS011;61379;59.732;30.468;2023-08-07T08:37:44;13.18;;;11.68;;
73168;SDS011;61379;59.732;30.468;2023-08-07T08:40:11;12.27;;;11.15;;
73168;SDS011;61379;59.732;30.468;2023-08-07T08:42:42;13.00;;;11.88;;
73168;SDS011;61379;59.732;30.468;2023-08-07T08:45:09;12.32;;;11.13;;
73168;SDS011;61379;59.732;30.468;2023-08-07T08:47:37;12.68;;;11.65;;
73168;SDS011;61379;59.732;30.468;2023-08-07T08:50:08;12.60;;;11.50;;
73168;SDS011;61379;59.732;30.468;2023-08-07T08:52:37;10.88;;;9.95;;
73168;SDS011;61379;59.732;30.468;2023-08-07T08:55:04;12.10;;;11.02;;
73168;SDS011;61379;59.732;30.468;2023-08-07T08:57:31;12.35;;;11.20;;
73168;SDS011;61379;59.732;30.468;2023-08-07T08:59:59;12.23;;;11.13;;
73168;SDS011;61379;59.732;30.468;2023-08-07T09:02:26;12.00;;;11.00;;
73168;SDS011;61379;59.732;30.468;2023-08-07T09:04:53;12.45;;;11.45;;
73168;SDS011;61379;59.732;30.468;2023-08-07T09:07:21;12.32;;;11.40;;
73168;SDS011;61379;59.732;30.468;2023-08-07T09:09:48;13.25;;;12.13;;
73168;SDS011;61379;59.732;30.468;2023-08-07T09:12:16;14.75;;;13.55;;
73168;SDS011;61379;59.732;30.468;2023-08-07T09:14:46;12.77;;;11.55;;
73168;SDS011;61379;59.732;30.468;2023-08-07T09:17:14;12.80;;;11.73;;
73168;SDS011;61379;59.732;30.468;2023-08-07T09:19:41;12.68;;;11.68;;
73168;SDS011;61379;59.732;30.468;2023-08-07T09:22:08;13.52;;;12.52;;
73168;SDS011;61379;59.732;30.468;2023-08-07T09:24:37;12.73;;;10.88;;
73168;SDS011;61379;59.732;30.468;2023-08-07T09:27:05;12.10;;;11.18;;
73168;SDS011;61379;59.732;30.468;2023-08-07T09:29:33;11.57;;;10.52;;
73168;SDS011;61379;59.732;30.468;2023-08-07T09:32:06;12.90;;;11.85;;
73168;SDS011;61379;59.732;30.468;2023-08-07T09:34:33;11.13;;;10.13;;
73168;SDS011;61379;59.732;30.468;2023-08-07T09:37:00;10.75;;;9.95;;
73168;SDS011;61379;59.732;30.468;2023-08-07T09:39:29;11.63;;;10.73;;
73168;SDS011;61379;59.732;30.468;2023-08-07T09:41:57;11.48;;;10.48;;
73168;SDS011;61379;59.732;30.468;2023-08-07T09:44:24;11.65;;;10.60;;
73168;SDS011;61379;59.732;30.468;2023-08-07T09:46:51;12.38;;;11.45;;
73168;SDS011;61379;59.732;30.468;2023-08-07T09:49:18;12.55;;;11.32;;
73168;SDS011;61379;59.732;30.468;2023-08-07T09:51:45;11.07;;;9.93;;
73168;SDS011;61379;59.732;30.468;2023-08-07T09:54:12;10.25;;;9.43;;
73168;SDS011;61379;59.732;30.468;2023-08-07T09:56:39;11.60;;;10.43;;
73168;SDS011;61379;59.732;30.468;2023-08-07T09:59:08;12.40;;;11.10;;
73168;SDS011;61379;59.732;30.468;2023-08-07T10:01:36;12.75;;;11.65;;
73168;SDS011;61379;59.732;30.468;2023-08-07T10:04:03;12.27;;;11.27;;
73168;SDS011;61379;59.732;30.468;2023-08-07T10:06:30;11.38;;;10.43;;
73168;SDS011;61379;59.732;30.468;2023-08-07T10:08:57;11.18;;;10.38;;
73168;SDS011;61379;59.732;30.468;2023-08-07T10:11:25;11.35;;;10.35;;
73168;SDS011;61379;59.732;30.468;2023-08-07T10:13:52;12.63;;;11.73;;
73168;SDS011;61379;59.732;30.468;2023-08-07T10:16:21;11.85;;;10.80;;
73168;SDS011;61379;59.732;30.468;2023-08-07T10:18:47;12.20;;;11.35;;
73168;SDS011;61379;59.732;30.468;2023-08-07T10:21:14;11.45;;;10.55;;
73168;SDS011;61379;59.732;30.468;2023-08-07T10:23:41;10.73;;;9.77;;
73168;SDS011;61379;59.732;30.468;2023-08-07T10:26:08;10.10;;;9.18;;
73168;SDS011;61379;59.732;30.468;2023-08-07T10:28:39;10.95;;;10.00;;
73168;SDS011;61379;59.732;30.468;2023-08-07T10:31:06;10.55;;;7.78;;
73168;SDS011;61379;59.732;30.468;2023-08-07T10:33:34;13.52;;;12.13;;
73168;SDS011;61379;59.732;30.468;2023-08-07T10:36:07;10.48;;;9.48;;
73168;SDS011;61379;59.732;30.468;2023-08-07T10:38:34;8.75;;;5.20;;
73168;SDS011;61379;59.732;30.468;2023-08-07T10:41:02;6.30;;;4.22;;
73168;SDS011;61379;59.732;30.468;2023-08-07T10:43:35;6.55;;;3.53;;
73168;SDS011;61379;59.732;30.468;2023-08-07T10:46:03;5.25;;;3.70;;
73168;SDS011;61379;59.732;30.468;2023-08-07T10:48:31;9.65;;;6.85;;
73168;SDS011;61379;59.732;30.468;2023-08-07T10:51:05;11.35;;;10.40;;
73168;SDS011;61379;59.732;30.468;2023-08-07T10:53:32;10.18;;;9.25;;
73168;SDS011;61379;59.732;30.468;2023-08-07T10:56:01;10.88;;;9.45;;
73168;SDS011;61379;59.732;30.468;2023-08-07T11:03:36;5.93;;;3.92;;
73168;SDS011;61379;59.732;30.468;2023-08-07T11:06:03;5.80;;;3.70;;
73168;SDS011;61379;59.732;30.468;2023-08-07T11:08:31;6.22;;;3.90;;
73168;SDS011;61379;59.732;30.468;2023-08-07T11:10:57;6.00;;;3.47;;
73168;SDS011;61379;59.732;30.468;2023-08-07T11:13:30;7.85;;;3.88;;
73168;SDS011;61379;59.732;30.468;2023-08-07T11:15:57;12.18;;;5.78;;
73168;SDS011;61379;59.732;30.468;2023-08-07T11:18:24;8.32;;;7.00;;
73168;SDS011;61379;59.732;30.468;2023-08-07T11:20:51;9.40;;;8.50;;
73168;SDS011;61379;59.732;30.468;2023-08-07T11:23:22;9.38;;;8.55;;
73168;SDS011;61379;59.732;30.468;2023-08-07T11:25:50;10.07;;;9.30;;
73168;SDS011;61379;59.732;30.468;2023-08-07T11:28:18;10.02;;;9.23;;
73168;SDS011;61379;59.732;30.468;2023-08-07T11:30:45;11.95;;;11.15;;
73168;SDS011;61379;59.732;30.468;2023-08-07T11:33:12;9.90;;;9.00;;
73168;SDS011;61379;59.732;30.468;2023-08-07T11:35:40;9.63;;;8.93;;
73168;SDS011;61379;59.732;30.468;2023-08-07T11:40:33;6.57;;;5.18;;
73168;SDS011;61379;59.732;30.468;2023-08-07T11:43:02;4.90;;;3.38;;
73168;SDS011;61379;59.732;30.468;2023-08-07T11:47:55;5.80;;;3.67;;
73168;SDS011;61379;59.732;30.468;2023-08-07T11:50:23;9.10;;;4.03;;
73168;SDS011;61379;59.732;30.468;2023-08-07T11:52:50;7.82;;;3.85;;
73168;SDS011;61379;59.732;30.468;2023-08-07T11:55:17;6.38;;;3.80;;
73168;SDS011;61379;59.732;30.468;2023-08-07T11:57:46;7.07;;;3.40;;
73168;SDS011;61379;59.732;30.468;2023-08-07T12:00:14;5.97;;;3.30;;
73168;SDS011;61379;59.732;30.468;2023-08-07T12:02:42;6.82;;;3.72;;
73168;SDS011;61379;59.732;30.468;2023-08-07T12:05:10;6.95;;;3.22;;
73168;SDS011;61379;59.732;30.468;2023-08-07T12:07:38;6.25;;;3.42;;
73168;SDS011;61379;59.732;30.468;2023-08-07T12:10:06;5.22;;;3.55;;
73168;SDS011;61379;59.732;30.468;2023-08-07T12:12:33;5.95;;;3.72;;
73168;SDS011;61379;59.732;30.468;2023-08-07T12:15:00;7.28;;;3.90;;
73168;SDS011;61379;59.732;30.468;2023-08-07T12:17:31;4.53;;;3.05;;
73168;SDS011;61379;59.732;30.468;2023-08-07T12:19:58;8.38;;;3.10;;
73168;SDS011;61379;59.732;30.468;2023-08-07T12:22:27;6.20;;;3.75;;
73168;SDS011;61379;59.732;30.468;2023-08-07T12:24:54;4.85;;;3.45;;
73168;SDS011;61379;59.732;30.468;2023-08-07T12:27:20;5.90;;;3.00;;
73168;SDS011;61379;59.732;30.468;2023-08-07T12:29:47;5.50;;;3.20;;
73168;SDS011;61379;59.732;30.468;2023-08-07T12:32:14;7.03;;;4.65;;
73168;SDS011;61379;59.732;30.468;2023-08-07T12:34:42;4.55;;;3.20;;
73168;SDS011;61379;59.732;30.468;2023-08-07T12:39:35;6.63;;;4.10;;
73168;SDS011;61379;59.732;30.468;2023-08-07T12:42:02;4.70;;;3.05;;
73168;SDS011;61379;59.732;30.468;2023-08-07T12:44:30;6.55;;;3.45;;
73168;SDS011;61379;59.732;30.468;2023-08-07T12:46:57;6.22;;;3.25;;
73168;SDS011;61379;59.732;30.468;2023-08-07T12:49:24;6.78;;;3.65;;
73168;SDS011;61379;59.732;30.468;2023-08-07T12:51:52;4.53;;;3.03;;
73168;SDS011;61379;59.732;30.468;2023-08-07T12:54:21;4.90;;;3.70;;
73168;SDS011;61379;59.732;30.468;2023-08-07T12:56:47;4.72;;;3.58;;
73168;SDS011;61379;59.732;30.468;2023-08-07T12:59:14;5.72;;;3.70;;
73168;SDS011;61379;59.732;30.468;2023-08-07T13:01:41;5.18;;;3.40;;
73168;SDS011;61379;59.732;30.468;2023-08-07T13:04:08;5.25;;;3.25;;
73168;SDS011;61379;59.732;30.468;2023-08-07T13:06:35;5.93;;;3.53;;
73168;SDS011;61379;59.732;30.468;2023-08-07T13:09:03;7.18;;;3.58;;
73168;SDS011;61379;59.732;30.468;2023-08-07T13:11:30;8.15;;;3.58;;
73168;SDS011;61379;59.732;30.468;2023-08-07T13:13:57;4.53;;;3.30;;
73168;SDS011;61379;59.732;30.468;2023-08-07T13:16:23;6.35;;;3.70;;
73168;SDS011;61379;59.732;30.468;2023-08-07T13:18:50;7.25;;;3.40;;
73168;SDS011;61379;59.732;30.468;2023-08-07T13:21:17;6.00;;;3.67;;
73168;SDS011;61379;59.732;30.468;2023-08-07T13:23:44;6.10;;;3.97;;
73168;SDS011;61379;59.732;30.468;2023-08-07T13:26:12;5.45;;;3.30;;
73168;SDS011;61379;59.732;30.468;2023-08-07T13:28:39;6.20;;;4.00;;
73168;SDS011;61379;59.732;30.468;2023-08-07T13:31:06;7.53;;;2.97;;
73168;SDS011;61379;59.732;30.468;2023-08-07T13:33:32;7.43;;;4.55;;
73168;SDS011;61379;59.732;30.468;2023-08-07T13:35:59;8.70;;;3.65;;
73168;SDS011;61379;59.732;30.468;2023-08-07T13:38:26;4.75;;;3.08;;
73168;SDS011;61379;59.732;30.468;2023-08-07T13:40:53;8.40;;;3.53;;
73168;SDS011;61379;59.732;30.468;2023-08-07T13:43:21;6.07;;;3.65;;
73168;SDS011;61379;59.732;30.468;2023-08-07T13:45:48;4.97;;;3.22;;
73168;SDS011;61379;59.732;30.468;2023-08-07T13:48:16;6.07;;;3.60;;
73168;SDS011;61379;59.732;30.468;2023-08-07T13:50:43;4.85;;;3.25;;
73168;SDS011;61379;59.732;30.468;2023-08-07T13:53:10;6.47;;;3.25;;
73168;SDS011;61379;59.732;30.468;2023-08-07T13:55:36;6.97;;;3.25;;
73168;SDS011;61379;59.732;30.468;2023-08-07T13:58:03;5.78;;;4.50;;
73168;SDS011;61379;59.732;30.468;2023-08-07T14:00:32;7.88;;;3.83;;
73168;SDS011;61379;59.732;30.468;2023-08-07T14:03:00;7.07;;;3.85;;
73168;SDS011;61379;59.732;30.468;2023-08-07T14:05:27;9.35;;;3.92;;
73168;SDS011;61379;59.732;30.468;2023-08-07T14:07:54;6.55;;;3.65;;
73168;SDS011;61379;59.732;30.468;2023-08-07T14:10:22;6.78;;;4.07;;
73168;SDS011;61379;59.732;30.468;2023-08-07T14:12:49;8.07;;;3.75;;
73168;SDS011;61379;59.732;30.468;2023-08-07T14:15:16;7.63;;;3.70;;
73168;SDS011;61379;59.732;30.468;2023-08-07T14:17:44;6.72;;;3.50;;
73168;SDS011;61379;59.732;30.468;2023-08-07T14:22:37;7.53;;;3.75;;
73168;SDS011;61379;59.732;30.468;2023-08-07T14:25:06;6.22;;;3.78;;
73168;SDS011;61379;59.732;30.468;2023-08-07T14:27:33;9.07;;;3.92;;
73168;SDS011;61379;59.732;30.468;2023-08-07T14:30:00;6.88;;;4.30;;
73168;SDS011;61379;59.732;30.468;2023-08-07T14:32:26;4.93;;;4.05;;